Terminal Aerodrome Forecast
Issued by NWS Tuscon, AZ

Home | Current Version | Previous Version | Text Only | Print | Product List | Glossary On
Versions: 1 2 3 4 5 6 7 8 9 10 11 12 13 14 15 16
000
FTUS45 KTWC 271120
TAFDUG
TAF
KDUG 271120Z 2712/2812 08008KT P6SM SCT090 BKN200
     FM272100 35009G15KT P6SM VCSH SCT070 BKN120
     FM280400 20006KT P6SM SCT070 BKN120=

USA.gov is the U.S. government's official web portal to all federal, state and local government web resources and services.